Artemas, Pennsylvania
Current Conditions -  °F | °C
As of 3:21 AM on Sunday 26 Oct 2014 (Local Time) from KCBE Reporting Station
Clear Clear  
Wind Chill: 15°   Ceiling: Unl
Heat Index: 15°   Visibility: 10mi
Dew Point:   Wind: 14mph
Humidity: 36%   Direction: 330°NNW
Pressure: 29.8"   Gusts: 22mph
Location:  39.75°N, 78.44°W
Report Text: KCBE 260721Z AUTO 33012G19KT 301V001 10SM CLR 15/00 A2980 RMK AO1
Loading
Personal Weather Stations






























Interactive Weather Map
Tropical Storm Tracking
New forecast layout! Learn more

10-Day Weather Forecast

Advertisements
Track Severe Weather on mobile